sensor_id;sensor_type;location;lat;lon;timestamp;temperature;humidity
418;DHT22;49;48.530;9.200;2022-07-10T00:00:11;24.70;32.80
418;DHT22;49;48.530;9.200;2022-07-10T00:02:40;24.70;32.80
418;DHT22;49;48.530;9.200;2022-07-10T00:05:09;24.80;32.50
418;DHT22;49;48.530;9.200;2022-07-10T00:07:37;24.80;32.00
418;DHT22;49;48.530;9.200;2022-07-10T00:10:05;24.70;32.80
418;DHT22;49;48.530;9.200;2022-07-10T00:12:32;24.60;32.30
418;DHT22;49;48.530;9.200;2022-07-10T00:14:59;24.70;32.80
418;DHT22;49;48.530;9.200;2022-07-10T00:17:26;24.60;32.80
418;DHT22;49;48.530;9.200;2022-07-10T00:19:54;24.60;33.30
418;DHT22;49;48.530;9.200;2022-07-10T00:22:21;24.60;33.40
418;DHT22;49;48.530;9.200;2022-07-10T00:24:48;24.60;32.70
418;DHT22;49;48.530;9.200;2022-07-10T00:27:16;24.60;33.30
418;DHT22;49;48.530;9.200;2022-07-10T00:29:43;24.70;32.10
418;DHT22;49;48.530;9.200;2022-07-10T00:32:10;24.70;32.30
418;DHT22;49;48.530;9.200;2022-07-10T00:34:37;24.80;32.00
418;DHT22;49;48.530;9.200;2022-07-10T00:37:05;24.80;32.20
418;DHT22;49;48.530;9.200;2022-07-10T00:39:32;24.80;32.40
418;DHT22;49;48.530;9.200;2022-07-10T00:42:06;24.80;32.30
418;DHT22;49;48.530;9.200;2022-07-10T00:44:35;24.60;32.50
418;DHT22;49;48.530;9.200;2022-07-10T00:47:03;24.60;32.70
418;DHT22;49;48.530;9.200;2022-07-10T00:49:31;24.50;32.60
418;DHT22;49;48.530;9.200;2022-07-10T00:51:59;24.60;33.30
418;DHT22;49;48.530;9.200;2022-07-10T00:54:29;24.60;32.60
418;DHT22;49;48.530;9.200;2022-07-10T00:56:56;24.60;32.80
418;DHT22;49;48.530;9.200;2022-07-10T00:59:25;24.60;32.60
418;DHT22;49;48.530;9.200;2022-07-10T01:01:52;24.70;32.90
418;DHT22;49;48.530;9.200;2022-07-10T01:04:20;24.70;32.30
418;DHT22;49;48.530;9.200;2022-07-10T01:06:47;24.70;32.60
418;DHT22;49;48.530;9.200;2022-07-10T01:09:14;24.60;33.00
418;DHT22;49;48.530;9.200;2022-07-10T01:11:42;24.70;32.90
418;DHT22;49;48.530;9.200;2022-07-10T01:14:10;24.60;33.10
418;DHT22;49;48.530;9.200;2022-07-10T01:16:37;24.60;33.40
418;DHT22;49;48.530;9.200;2022-07-10T01:19:04;24.50;33.00
418;DHT22;49;48.530;9.200;2022-07-10T01:21:35;24.50;32.50
418;DHT22;49;48.530;9.200;2022-07-10T01:24:04;24.50;32.40
418;DHT22;49;48.530;9.200;2022-07-10T01:26:33;24.40;32.80
418;DHT22;49;48.530;9.200;2022-07-10T01:29:03;24.50;33.20
418;DHT22;49;48.530;9.200;2022-07-10T01:31:32;24.40;33.30
418;DHT22;49;48.530;9.200;2022-07-10T01:34:00;24.30;33.60
418;DHT22;49;48.530;9.200;2022-07-10T01:36:28;24.30;33.60
418;DHT22;49;48.530;9.200;2022-07-10T01:38:57;24.20;33.60
418;DHT22;49;48.530;9.200;2022-07-10T01:41:25;24.30;33.60
418;DHT22;49;48.530;9.200;2022-07-10T01:43:53;24.30;33.60
418;DHT22;49;48.530;9.200;2022-07-10T01:46:20;24.20;33.60
418;DHT22;49;48.530;9.200;2022-07-10T01:48:47;24.20;33.50
418;DHT22;49;48.530;9.200;2022-07-10T01:51:14;24.30;33.10
418;DHT22;49;48.530;9.200;2022-07-10T01:53:42;24.30;33.60
418;DHT22;49;48.530;9.200;2022-07-10T01:56:11;24.10;33.50
418;DHT22;49;48.530;9.200;2022-07-10T01:58:39;24.20;33.60
418;DHT22;49;48.530;9.200;2022-07-10T02:01:07;24.10;33.50
418;DHT22;49;48.530;9.200;2022-07-10T02:03:35;24.10;33.70
418;DHT22;49;48.530;9.200;2022-07-10T02:06:20;24.00;33.40
418;DHT22;49;48.530;9.200;2022-07-10T02:08:47;24.00;33.40
418;DHT22;49;48.530;9.200;2022-07-10T02:11:15;24.10;33.50
418;DHT22;49;48.530;9.200;2022-07-10T02:13:42;24.10;33.50
418;DHT22;49;48.530;9.200;2022-07-10T02:16:10;23.90;33.60
418;DHT22;49;48.530;9.200;2022-07-10T02:18:37;23.90;33.30
418;DHT22;49;48.530;9.200;2022-07-10T02:21:05;23.90;33.30
418;DHT22;49;48.530;9.200;2022-07-10T02:23:33;23.80;33.30
418;DHT22;49;48.530;9.200;2022-07-10T02:26:00;23.70;33.90
418;DHT22;49;48.530;9.200;2022-07-10T02:28:29;23.60;34.00
418;DHT22;49;48.530;9.200;2022-07-10T02:30:56;23.50;34.20
418;DHT22;49;48.530;9.200;2022-07-10T02:33:23;23.40;34.70
418;DHT22;49;48.530;9.200;2022-07-10T02:35:50;23.30;34.60
418;DHT22;49;48.530;9.200;2022-07-10T02:38:17;23.20;34.80
418;DHT22;49;48.530;9.200;2022-07-10T02:40:44;23.10;35.20
418;DHT22;49;48.530;9.200;2022-07-10T02:43:11;23.10;35.30
418;DHT22;49;48.530;9.200;2022-07-10T02:45:39;23.10;35.50
418;DHT22;49;48.530;9.200;2022-07-10T02:48:06;22.90;35.70
418;DHT22;49;48.530;9.200;2022-07-10T02:50:33;22.70;36.50
418;DHT22;49;48.530;9.200;2022-07-10T02:53:00;22.50;36.90
418;DHT22;49;48.530;9.200;2022-07-10T02:55:28;22.50;36.90
418;DHT22;49;48.530;9.200;2022-07-10T02:57:57;22.60;36.80
418;DHT22;49;48.530;9.200;2022-07-10T03:00:24;22.60;36.50
418;DHT22;49;48.530;9.200;2022-07-10T03:02:53;22.90;36.20
418;DHT22;49;48.530;9.200;2022-07-10T03:05:20;22.80;36.30
418;DHT22;49;48.530;9.200;2022-07-10T03:07:46;22.50;37.10
418;DHT22;49;48.530;9.200;2022-07-10T03:10:14;22.10;38.50
418;DHT22;49;48.530;9.200;2022-07-10T03:12:41;21.70;39.80
418;DHT22;49;48.530;9.200;2022-07-10T03:15:09;21.80;39.70
418;DHT22;49;48.530;9.200;2022-07-10T03:17:36;21.80;40.40
418;DHT22;49;48.530;9.200;2022-07-10T03:20:05;21.80;40.50
418;DHT22;49;48.530;9.200;2022-07-10T03:22:32;21.40;41.60
418;DHT22;49;48.530;9.200;2022-07-10T03:24:59;21.40;42.20
418;DHT22;49;48.530;9.200;2022-07-10T03:27:26;21.30;42.40
418;DHT22;49;48.530;9.200;2022-07-10T03:29:53;21.00;44.60
418;DHT22;49;48.530;9.200;2022-07-10T03:32:20;20.70;45.90
418;DHT22;49;48.530;9.200;2022-07-10T03:34:47;21.00;45.40
418;DHT22;49;48.530;9.200;2022-07-10T03:37:15;21.20;45.10
418;DHT22;49;48.530;9.200;2022-07-10T03:39:42;21.00;45.50
418;DHT22;49;48.530;9.200;2022-07-10T03:42:09;20.70;46.70
418;DHT22;49;48.530;9.200;2022-07-10T03:44:36;20.90;46.70
418;DHT22;49;48.530;9.200;2022-07-10T03:47:03;20.20;50.30
418;DHT22;49;48.530;9.200;2022-07-10T03:49:30;19.90;54.50
418;DHT22;49;48.530;9.200;2022-07-10T03:51:59;20.30;53.40
418;DHT22;49;48.530;9.200;2022-07-10T03:54:28;19.90;53.80
418;DHT22;49;48.530;9.200;2022-07-10T03:56:55;19.90;56.20
418;DHT22;49;48.530;9.200;2022-07-10T03:59:40;19.80;56.60
418;DHT22;49;48.530;9.200;2022-07-10T04:02:07;20.00;56.50
418;DHT22;49;48.530;9.200;2022-07-10T04:04:34;20.30;55.10
418;DHT22;49;48.530;9.200;2022-07-10T04:07:01;20.00;56.20
418;DHT22;49;48.530;9.200;2022-07-10T04:09:31;19.80;58.50
418;DHT22;49;48.530;9.200;2022-07-10T04:11:57;20.00;58.70
418;DHT22;49;48.530;9.200;2022-07-10T04:14:24;20.30;57.60
418;DHT22;49;48.530;9.200;2022-07-10T04:16:56;20.30;57.80
418;DHT22;49;48.530;9.200;2022-07-10T04:19:23;20.50;56.70
418;DHT22;49;48.530;9.200;2022-07-10T04:21:50;20.90;53.70
418;DHT22;49;48.530;9.200;2022-07-10T04:24:17;20.90;54.30
418;DHT22;49;48.530;9.200;2022-07-10T04:26:45;21.20;53.50
418;DHT22;49;48.530;9.200;2022-07-10T04:29:12;21.20;52.80
418;DHT22;49;48.530;9.200;2022-07-10T04:31:39;21.40;51.50
418;DHT22;49;48.530;9.200;2022-07-10T04:34:05;21.30;52.00
418;DHT22;49;48.530;9.200;2022-07-10T04:36:33;21.30;51.80
418;DHT22;49;48.530;9.200;2022-07-10T04:39:00;21.50;51.00
418;DHT22;49;48.530;9.200;2022-07-10T04:41:27;21.90;49.90
418;DHT22;49;48.530;9.200;2022-07-10T04:43:55;22.20;46.50
418;DHT22;49;48.530;9.200;2022-07-10T04:46:22;22.20;46.60
418;DHT22;49;48.530;9.200;2022-07-10T04:48:54;22.40;46.50
418;DHT22;49;48.530;9.200;2022-07-10T04:51:21;22.30;45.70
418;DHT22;49;48.530;9.200;2022-07-10T04:53:49;22.40;45.50
418;DHT22;49;48.530;9.200;2022-07-10T04:56:16;22.50;45.00
418;DHT22;49;48.530;9.200;2022-07-10T04:58:43;22.60;45.40
418;DHT22;49;48.530;9.200;2022-07-10T05:01:12;22.70;44.50
418;DHT22;49;48.530;9.200;2022-07-10T05:03:39;22.90;43.30
418;DHT22;49;48.530;9.200;2022-07-10T05:06:07;23.20;42.60
418;DHT22;49;48.530;9.200;2022-07-10T05:08:34;23.30;41.80
418;DHT22;49;48.530;9.200;2022-07-10T05:11:01;23.50;41.00
418;DHT22;49;48.530;9.200;2022-07-10T05:13:27;23.50;40.70
418;DHT22;49;48.530;9.200;2022-07-10T05:15:54;23.40;41.30
418;DHT22;49;48.530;9.200;2022-07-10T05:18:23;23.40;41.90
418;DHT22;49;48.530;9.200;2022-07-10T05:20:51;23.00;42.10
418;DHT22;49;48.530;9.200;2022-07-10T05:23:19;22.80;42.20
418;DHT22;49;48.530;9.200;2022-07-10T05:25:46;23.00;41.20
418;DHT22;49;48.530;9.200;2022-07-10T05:28:14;22.80;41.80
418;DHT22;49;48.530;9.200;2022-07-10T05:30:41;22.40;43.10
418;DHT22;49;48.530;9.200;2022-07-10T05:33:08;22.40;43.00
418;DHT22;49;48.530;9.200;2022-07-10T05:35:37;22.50;42.00
418;DHT22;49;48.530;9.200;2022-07-10T05:38:03;22.50;42.10
418;DHT22;49;48.530;9.200;2022-07-10T05:40:30;22.60;42.40
418;DHT22;49;48.530;9.200;2022-07-10T05:42:58;22.00;43.60
418;DHT22;49;48.530;9.200;2022-07-10T05:45:25;21.20;46.10
418;DHT22;49;48.530;9.200;2022-07-10T05:47:52;20.90;48.50
418;DHT22;49;48.530;9.200;2022-07-10T05:50:19;21.00;47.60
418;DHT22;49;48.530;9.200;2022-07-10T05:52:47;21.00;47.50
418;DHT22;49;48.530;9.200;2022-07-10T05:55:14;21.10;46.50
418;DHT22;49;48.530;9.200;2022-07-10T05:57:41;20.80;48.80
418;DHT22;49;48.530;9.200;2022-07-10T06:00:11;21.10;51.90
418;DHT22;49;48.530;9.200;2022-07-10T06:02:38;21.30;45.70
418;DHT22;49;48.530;9.200;2022-07-10T06:05:05;22.70;43.70
418;DHT22;49;48.530;9.200;2022-07-10T06:07:32;24.30;36.80
418;DHT22;49;48.530;9.200;2022-07-10T06:10:01;25.50;31.50
418;DHT22;49;48.530;9.200;2022-07-10T06:12:28;25.20;31.40
418;DHT22;49;48.530;9.200;2022-07-10T06:14:56;25.00;30.70
418;DHT22;49;48.530;9.200;2022-07-10T06:17:22;23.80;33.20
418;DHT22;49;48.530;9.200;2022-07-10T06:19:49;23.30;35.20
418;DHT22;49;48.530;9.200;2022-07-10T06:22:16;23.40;35.10
418;DHT22;49;48.530;9.200;2022-07-10T06:25:06;23.40;35.30
418;DHT22;49;48.530;9.200;2022-07-10T06:27:34;22.60;36.10
418;DHT22;49;48.530;9.200;2022-07-10T06:30:01;21.50;39.70
418;DHT22;49;48.530;9.200;2022-07-10T06:32:28;21.30;42.60
418;DHT22;49;48.530;9.200;2022-07-10T06:34:55;21.30;41.40
418;DHT22;49;48.530;9.200;2022-07-10T06:37:22;21.50;44.50
418;DHT22;49;48.530;9.200;2022-07-10T06:39:49;23.20;42.00
418;DHT22;49;48.530;9.200;2022-07-10T06:42:18;25.40;33.10
418;DHT22;49;48.530;9.200;2022-07-10T06:44:45;26.90;27.40
418;DHT22;49;48.530;9.200;2022-07-10T06:47:13;27.50;25.20
418;DHT22;49;48.530;9.200;2022-07-10T06:49:58;27.20;25.70
418;DHT22;49;48.530;9.200;2022-07-10T06:52:25;27.60;25.10
418;DHT22;49;48.530;9.200;2022-07-10T06:54:54;28.20;23.80
418;DHT22;49;48.530;9.200;2022-07-10T06:57:22;27.40;24.80
418;DHT22;49;48.530;9.200;2022-07-10T06:59:49;26.40;25.50
418;DHT22;49;48.530;9.200;2022-07-10T07:02:17;24.70;28.70
418;DHT22;49;48.530;9.200;2022-07-10T07:04:44;24.80;27.60
418;DHT22;49;48.530;9.200;2022-07-10T07:07:11;24.60;28.00
418;DHT22;49;48.530;9.200;2022-07-10T07:09:38;25.30;26.90
418;DHT22;49;48.530;9.200;2022-07-10T07:12:06;25.40;25.90
418;DHT22;49;48.530;9.200;2022-07-10T07:14:35;24.00;27.90
418;DHT22;49;48.530;9.200;2022-07-10T07:17:04;22.90;29.80
418;DHT22;49;48.530;9.200;2022-07-10T07:19:32;22.50;31.20
418;DHT22;49;48.530;9.200;2022-07-10T07:22:20;22.50;32.00
418;DHT22;49;48.530;9.200;2022-07-10T07:25:06;23.50;30.30
418;DHT22;49;48.530;9.200;2022-07-10T07:27:34;24.60;29.10
418;DHT22;49;48.530;9.200;2022-07-10T07:30:04;25.80;26.10
418;DHT22;49;48.530;9.200;2022-07-10T07:32:31;25.90;25.70
418;DHT22;49;48.530;9.200;2022-07-10T07:34:58;25.20;25.80
418;DHT22;49;48.530;9.200;2022-07-10T07:37:35;24.60;27.20
418;DHT22;49;48.530;9.200;2022-07-10T07:40:03;24.40;27.70
418;DHT22;49;48.530;9.200;2022-07-10T07:42:30;24.30;27.90
418;DHT22;49;48.530;9.200;2022-07-10T07:44:57;23.80;28.80
418;DHT22;49;48.530;9.200;2022-07-10T07:47:25;23.90;29.00
418;DHT22;49;48.530;9.200;2022-07-10T07:49:52;24.30;27.70
418;DHT22;49;48.530;9.200;2022-07-10T07:52:19;24.30;27.00
418;DHT22;49;48.530;9.200;2022-07-10T07:54:46;23.90;27.70
418;DHT22;49;48.530;9.200;2022-07-10T07:57:13;24.10;28.40
418;DHT22;49;48.530;9.200;2022-07-10T07:59:40;24.60;28.00
418;DHT22;49;48.530;9.200;2022-07-10T08:02:07;25.20;26.90
418;DHT22;49;48.530;9.200;2022-07-10T08:04:35;24.70;27.40
418;DHT22;49;48.530;9.200;2022-07-10T08:07:02;24.60;27.90
418;DHT22;49;48.530;9.200;2022-07-10T08:09:30;24.80;27.40
418;DHT22;49;48.530;9.200;2022-07-10T08:11:57;25.00;27.10
418;DHT22;49;48.530;9.200;2022-07-10T08:14:23;24.60;27.20
418;DHT22;49;48.530;9.200;2022-07-10T08:16:50;26.00;25.40
418;DHT22;49;48.530;9.200;2022-07-10T08:19:17;27.30;23.40
418;DHT22;49;48.530;9.200;2022-07-10T08:21:45;28.70;21.00
418;DHT22;49;48.530;9.200;2022-07-10T08:24:13;29.20;20.00
418;DHT22;49;48.530;9.200;2022-07-10T08:26:40;29.90;19.80
418;DHT22;49;48.530;9.200;2022-07-10T08:29:07;31.10;18.20
418;DHT22;49;48.530;9.200;2022-07-10T08:31:34;31.70;17.40
418;DHT22;49;48.530;9.200;2022-07-10T08:34:01;31.80;16.30
418;DHT22;49;48.530;9.200;2022-07-10T08:36:28;30.90;17.40
418;DHT22;49;48.530;9.200;2022-07-10T08:38:56;30.30;18.80
418;DHT22;49;48.530;9.200;2022-07-10T08:41:25;29.20;19.20
418;DHT22;49;48.530;9.200;2022-07-10T08:43:53;29.30;19.60
418;DHT22;49;48.530;9.200;2022-07-10T08:46:20;30.50;18.30
418;DHT22;49;48.530;9.200;2022-07-10T08:48:49;31.50;17.40
418;DHT22;49;48.530;9.200;2022-07-10T08:51:30;31.50;17.10
418;DHT22;49;48.530;9.200;2022-07-10T08:54:22;30.20;17.80
418;DHT22;49;48.530;9.200;2022-07-10T08:56:50;29.30;18.50
418;DHT22;49;48.530;9.200;2022-07-10T08:59:18;29.10;19.60
418;DHT22;49;48.530;9.200;2022-07-10T09:01:47;28.90;19.80
418;DHT22;49;48.530;9.200;2022-07-10T09:04:17;29.30;19.10
418;DHT22;49;48.530;9.200;2022-07-10T09:06:44;28.20;19.90
418;DHT22;49;48.530;9.200;2022-07-10T09:09:11;27.10;20.90
418;DHT22;49;48.530;9.200;2022-07-10T09:11:42;26.20;22.50
418;DHT22;49;48.530;9.200;2022-07-10T09:14:24;26.00;22.90
418;DHT22;49;48.530;9.200;2022-07-10T09:16:53;25.60;22.90
418;DHT22;49;48.530;9.200;2022-07-10T09:19:22;26.30;23.10
418;DHT22;49;48.530;9.200;2022-07-10T09:21:51;26.70;21.30
418;DHT22;49;48.530;9.200;2022-07-10T09:24:18;26.30;22.20
418;DHT22;49;48.530;9.200;2022-07-10T09:26:59;26.80;21.30
418;DHT22;49;48.530;9.200;2022-07-10T09:29:29;26.00;23.10
418;DHT22;49;48.530;9.200;2022-07-10T09:31:57;25.60;23.20
418;DHT22;49;48.530;9.200;2022-07-10T09:34:38;25.70;23.20
418;DHT22;49;48.530;9.200;2022-07-10T09:37:22;26.30;22.20
418;DHT22;49;48.530;9.200;2022-07-10T09:39:55;26.40;21.30
418;DHT22;49;48.530;9.200;2022-07-10T09:42:31;25.70;21.70
418;DHT22;49;48.530;9.200;2022-07-10T09:45:16;26.00;22.30
418;DHT22;49;48.530;9.200;2022-07-10T09:47:45;26.60;21.00
418;DHT22;49;48.530;9.200;2022-07-10T09:50:23;27.10;20.20
418;DHT22;49;48.530;9.200;2022-07-10T09:52:52;27.00;20.90
418;DHT22;49;48.530;9.200;2022-07-10T09:55:21;27.60;19.50
418;DHT22;49;48.530;9.200;2022-07-10T09:57:55;28.20;19.30
418;DHT22;49;48.530;9.200;2022-07-10T10:00:23;28.80;18.60
418;DHT22;49;48.530;9.200;2022-07-10T10:02:55;29.00;18.40
418;DHT22;49;48.530;9.200;2022-07-10T10:05:30;28.80;18.30
418;DHT22;49;48.530;9.200;2022-07-10T10:08:01;27.30;18.50
418;DHT22;49;48.530;9.200;2022-07-10T10:10:31;26.90;20.00
418;DHT22;49;48.530;9.200;2022-07-10T10:13:03;26.50;19.30
418;DHT22;49;48.530;9.200;2022-07-10T10:15:31;26.20;20.10
418;DHT22;49;48.530;9.200;2022-07-10T10:17:59;25.70;21.70
418;DHT22;49;48.530;9.200;2022-07-10T10:20:29;25.90;20.90
418;DHT22;49;48.530;9.200;2022-07-10T10:23:10;25.70;21.40
418;DHT22;49;48.530;9.200;2022-07-10T10:25:38;25.70;21.50
418;DHT22;49;48.530;9.200;2022-07-10T10:28:08;25.20;21.60
418;DHT22;49;48.530;9.200;2022-07-10T10:30:37;25.00;23.50
418;DHT22;49;48.530;9.200;2022-07-10T10:33:42;25.80;20.70
418;DHT22;49;48.530;9.200;2022-07-10T10:36:11;26.00;20.80
418;DHT22;49;48.530;9.200;2022-07-10T10:39:02;26.50;18.90
418;DHT22;49;48.530;9.200;2022-07-10T10:41:36;27.00;19.50
418;DHT22;49;48.530;9.200;2022-07-10T10:44:24;27.00;18.20
418;DHT22;49;48.530;9.200;2022-07-10T10:46:59;26.00;19.30
418;DHT22;49;48.530;9.200;2022-07-10T10:49:54;25.50;20.10
418;DHT22;49;48.530;9.200;2022-07-10T10:52:27;24.70;20.90
418;DHT22;49;48.530;9.200;2022-07-10T10:55:05;25.20;20.20
418;DHT22;49;48.530;9.200;2022-07-10T10:57:41;25.30;19.80
418;DHT22;49;48.530;9.200;2022-07-10T11:00:30;26.00;19.90
418;DHT22;49;48.530;9.200;2022-07-10T11:03:26;26.30;19.70
418;DHT22;49;48.530;9.200;2022-07-10T11:05:53;26.00;20.30
418;DHT22;49;48.530;9.200;2022-07-10T11:08:38;25.00;21.00
418;DHT22;49;48.530;9.200;2022-07-10T11:11:36;25.00;21.50
418;DHT22;49;48.530;9.200;2022-07-10T11:14:05;24.30;21.30
418;DHT22;49;48.530;9.200;2022-07-10T11:16:34;24.30;21.00
418;DHT22;49;48.530;9.200;2022-07-10T11:19:02;24.50;22.30
418;DHT22;49;48.530;9.200;2022-07-10T11:21:38;25.20;20.80
418;DHT22;49;48.530;9.200;2022-07-10T11:24:18;25.70;19.80
418;DHT22;49;48.530;9.200;2022-07-10T11:26:55;25.80;19.40
418;DHT22;49;48.530;9.200;2022-07-10T11:29:25;25.80;20.30
418;DHT22;49;48.530;9.200;2022-07-10T11:31:54;25.70;19.90
418;DHT22;49;48.530;9.200;2022-07-10T11:34:22;26.00;19.20
418;DHT22;49;48.530;9.200;2022-07-10T11:36:48;26.40;19.00
418;DHT22;49;48.530;9.200;2022-07-10T11:39:15;26.40;19.40
418;DHT22;49;48.530;9.200;2022-07-10T11:41:43;26.00;20.00
418;DHT22;49;48.530;9.200;2022-07-10T11:44:16;26.00;20.50
418;DHT22;49;48.530;9.200;2022-07-10T11:46:44;25.00;21.50
418;DHT22;49;48.530;9.200;2022-07-10T11:49:16;24.80;20.40
418;DHT22;49;48.530;9.200;2022-07-10T11:51:43;24.50;22.10
418;DHT22;49;48.530;9.200;2022-07-10T11:54:11;24.90;20.50
418;DHT22;49;48.530;9.200;2022-07-10T11:56:41;25.40;20.70
418;DHT22;49;48.530;9.200;2022-07-10T11:59:09;25.70;21.70
418;DHT22;49;48.530;9.200;2022-07-10T12:01:41;25.70;20.60
418;DHT22;49;48.530;9.200;2022-07-10T12:04:09;25.40;20.90
418;DHT22;49;48.530;9.200;2022-07-10T12:06:39;25.20;21.50
418;DHT22;49;48.530;9.200;2022-07-10T12:09:08;25.00;20.20
418;DHT22;49;48.530;9.200;2022-07-10T12:11:36;25.20;20.20
418;DHT22;49;48.530;9.200;2022-07-10T12:14:11;24.70;21.30
418;DHT22;49;48.530;9.200;2022-07-10T12:16:38;24.60;21.20
418;DHT22;49;48.530;9.200;2022-07-10T12:19:06;24.50;21.80
418;DHT22;49;48.530;9.200;2022-07-10T12:21:33;24.80;21.70
418;DHT22;49;48.530;9.200;2022-07-10T12:24:03;25.20;20.80
418;DHT22;49;48.530;9.200;2022-07-10T12:26:34;25.40;20.40
418;DHT22;49;48.530;9.200;2022-07-10T12:29:02;25.90;19.10
418;DHT22;49;48.530;9.200;2022-07-10T12:31:30;26.50;17.20
418;DHT22;49;48.530;9.200;2022-07-10T12:34:00;26.80;17.50
418;DHT22;49;48.530;9.200;2022-07-10T12:36:44;26.60;19.40
418;DHT22;49;48.530;9.200;2022-07-10T12:39:13;26.10;19.70
418;DHT22;49;48.530;9.200;2022-07-10T12:42:00;25.90;20.70
418;DHT22;49;48.530;9.200;2022-07-10T12:44:38;25.90;19.40
418;DHT22;49;48.530;9.200;2022-07-10T12:47:07;25.70;20.10
418;DHT22;49;48.530;9.200;2022-07-10T12:49:50;25.70;19.50
418;DHT22;49;48.530;9.200;2022-07-10T12:52:21;25.50;19.90
418;DHT22;49;48.530;9.200;2022-07-10T12:55:05;25.30;19.80
418;DHT22;49;48.530;9.200;2022-07-10T12:57:33;24.80;21.10
418;DHT22;49;48.530;9.200;2022-07-10T13:00:03;24.80;20.80
418;DHT22;49;48.530;9.200;2022-07-10T13:02:31;24.90;20.20
418;DHT22;49;48.530;9.200;2022-07-10T13:04:58;25.00;20.30
418;DHT22;49;48.530;9.200;2022-07-10T13:07:32;25.00;20.80
418;DHT22;49;48.530;9.200;2022-07-10T13:10:02;25.40;20.00
418;DHT22;49;48.530;9.200;2022-07-10T13:12:29;25.90;18.60
418;DHT22;49;48.530;9.200;2022-07-10T13:14:56;25.60;20.00
418;DHT22;49;48.530;9.200;2022-07-10T13:17:23;24.70;21.30
418;DHT22;49;48.530;9.200;2022-07-10T13:19:50;24.60;20.90
418;DHT22;49;48.530;9.200;2022-07-10T13:22:17;24.60;21.10
418;DHT22;49;48.530;9.200;2022-07-10T13:24:44;25.20;20.20
418;DHT22;49;48.530;9.200;2022-07-10T13:27:12;25.70;19.50
418;DHT22;49;48.530;9.200;2022-07-10T13:29:39;25.50;19.60
418;DHT22;49;48.530;9.200;2022-07-10T13:32:06;24.90;20.10
418;DHT22;49;48.530;9.200;2022-07-10T13:34:33;25.00;20.40
418;DHT22;49;48.530;9.200;2022-07-10T13:37:02;25.20;20.70
418;DHT22;49;48.530;9.200;2022-07-10T13:39:29;25.90;18.40
418;DHT22;49;48.530;9.200;2022-07-10T13:41:56;26.60;17.10
418;DHT22;49;48.530;9.200;2022-07-10T13:44:24;26.20;17.50
418;DHT22;49;48.530;9.200;2022-07-10T13:46:51;25.40;18.70
418;DHT22;49;48.530;9.200;2022-07-10T13:49:18;25.00;19.60
418;DHT22;49;48.530;9.200;2022-07-10T13:51:45;24.70;21.30
418;DHT22;49;48.530;9.200;2022-07-10T13:54:11;24.20;19.60
418;DHT22;49;48.530;9.200;2022-07-10T13:56:39;24.10;20.00
418;DHT22;49;48.530;9.200;2022-07-10T13:59:06;24.40;21.10
418;DHT22;49;48.530;9.200;2022-07-10T14:01:34;24.90;19.70
418;DHT22;49;48.530;9.200;2022-07-10T14:04:01;24.80;19.40
418;DHT22;49;48.530;9.200;2022-07-10T14:06:28;24.40;20.00
418;DHT22;49;48.530;9.200;2022-07-10T14:08:55;24.30;20.10
418;DHT22;49;48.530;9.200;2022-07-10T14:11:22;24.80;19.90
418;DHT22;49;48.530;9.200;2022-07-10T14:13:49;24.40;17.90
418;DHT22;49;48.530;9.200;2022-07-10T14:16:16;24.80;19.80
418;DHT22;49;48.530;9.200;2022-07-10T14:18:44;24.40;18.60
418;DHT22;49;48.530;9.200;2022-07-10T14:21:11;23.70;19.10
418;DHT22;49;48.530;9.200;2022-07-10T14:23:40;23.90;20.70
418;DHT22;49;48.530;9.200;2022-07-10T14:26:10;24.70;18.90
418;DHT22;49;48.530;9.200;2022-07-10T14:28:37;24.80;18.90
418;DHT22;49;48.530;9.200;2022-07-10T14:31:05;25.10;18.70
418;DHT22;49;48.530;9.200;2022-07-10T14:33:33;25.10;19.20
418;DHT22;49;48.530;9.200;2022-07-10T14:36:03;25.00;20.30
418;DHT22;49;48.530;9.200;2022-07-10T14:38:30;25.10;19.50
418;DHT22;49;48.530;9.200;2022-07-10T14:40:57;25.00;19.40
418;DHT22;49;48.530;9.200;2022-07-10T14:43:23;25.10;18.30
418;DHT22;49;48.530;9.200;2022-07-10T14:45:51;25.60;17.50
418;DHT22;49;48.530;9.200;2022-07-10T14:48:18;25.80;19.60
418;DHT22;49;48.530;9.200;2022-07-10T14:50:45;25.60;18.30
418;DHT22;49;48.530;9.200;2022-07-10T14:53:13;25.50;17.20
418;DHT22;49;48.530;9.200;2022-07-10T14:55:40;25.40;17.80
418;DHT22;49;48.530;9.200;2022-07-10T14:58:07;25.70;15.90
418;DHT22;49;48.530;9.200;2022-07-10T15:00:34;25.50;16.70
418;DHT22;49;48.530;9.200;2022-07-10T15:03:01;25.10;18.30
418;DHT22;49;48.530;9.200;2022-07-10T15:05:28;24.90;20.70
418;DHT22;49;48.530;9.200;2022-07-10T15:07:55;24.00;19.80
418;DHT22;49;48.530;9.200;2022-07-10T15:10:23;23.90;20.80
418;DHT22;49;48.530;9.200;2022-07-10T15:12:50;23.40;20.40
418;DHT22;49;48.530;9.200;2022-07-10T15:15:17;23.00;20.10
418;DHT22;49;48.530;9.200;2022-07-10T15:17:44;22.80;22.30
418;DHT22;49;48.530;9.200;2022-07-10T15:20:11;23.50;21.80
418;DHT22;49;48.530;9.200;2022-07-10T15:22:40;23.70;21.10
418;DHT22;49;48.530;9.200;2022-07-10T15:25:07;24.20;20.90
418;DHT22;49;48.530;9.200;2022-07-10T15:27:36;24.90;19.40
418;DHT22;49;48.530;9.200;2022-07-10T15:30:05;25.20;20.20
418;DHT22;49;48.530;9.200;2022-07-10T15:32:32;25.00;19.00
418;DHT22;49;48.530;9.200;2022-07-10T15:34:59;24.80;19.20
418;DHT22;49;48.530;9.200;2022-07-10T15:37:26;24.50;21.20
418;DHT22;49;48.530;9.200;2022-07-10T15:39:54;24.40;20.20
418;DHT22;49;48.530;9.200;2022-07-10T15:42:21;24.00;19.90
418;DHT22;49;48.530;9.200;2022-07-10T15:44:49;24.20;21.00
418;DHT22;49;48.530;9.200;2022-07-10T15:47:16;24.60;20.30
418;DHT22;49;48.530;9.200;2022-07-10T15:49:43;25.00;19.40
418;DHT22;49;48.530;9.200;2022-07-10T15:52:10;25.10;19.70
418;DHT22;49;48.530;9.200;2022-07-10T15:54:37;24.90;20.00
418;DHT22;49;48.530;9.200;2022-07-10T15:57:05;24.50;21.10
418;DHT22;49;48.530;9.200;2022-07-10T15:59:32;24.50;19.70
418;DHT22;49;48.530;9.200;2022-07-10T16:02:01;24.40;19.70
418;DHT22;49;48.530;9.200;2022-07-10T16:04:29;24.20;20.30
418;DHT22;49;48.530;9.200;2022-07-10T16:06:56;24.30;20.40
418;DHT22;49;48.530;9.200;2022-07-10T16:09:22;24.20;20.50
418;DHT22;49;48.530;9.200;2022-07-10T16:11:49;23.90;19.70
418;DHT22;49;48.530;9.200;2022-07-10T16:14:16;23.60;21.50
418;DHT22;49;48.530;9.200;2022-07-10T16:16:45;23.70;20.60
418;DHT22;49;48.530;9.200;2022-07-10T16:19:13;23.40;20.40
418;DHT22;49;48.530;9.200;2022-07-10T16:21:40;23.30;20.50
418;DHT22;49;48.530;9.200;2022-07-10T16:24:08;23.60;20.60
418;DHT22;49;48.530;9.200;2022-07-10T16:26:35;24.20;20.20
418;DHT22;49;48.530;9.200;2022-07-10T16:29:03;24.30;19.50
418;DHT22;49;48.530;9.200;2022-07-10T16:31:30;23.70;19.80
418;DHT22;49;48.530;9.200;2022-07-10T16:34:01;23.90;20.60
418;DHT22;49;48.530;9.200;2022-07-10T16:36:30;24.60;19.90
418;DHT22;49;48.530;9.200;2022-07-10T16:38:57;24.80;20.50
418;DHT22;49;48.530;9.200;2022-07-10T16:41:24;24.40;20.80
418;DHT22;49;48.530;9.200;2022-07-10T16:43:52;24.70;21.20
418;DHT22;49;48.530;9.200;2022-07-10T16:46:19;24.80;19.10
418;DHT22;49;48.530;9.200;2022-07-10T16:48:46;25.20;19.20
418;DHT22;49;48.530;9.200;2022-07-10T16:51:13;25.40;18.10
418;DHT22;49;48.530;9.200;2022-07-10T16:53:41;25.70;18.50
418;DHT22;49;48.530;9.200;2022-07-10T16:56:08;25.40;19.70
418;DHT22;49;48.530;9.200;2022-07-10T16:58:35;25.20;19.00
418;DHT22;49;48.530;9.200;2022-07-10T17:01:02;24.50;22.70
418;DHT22;49;48.530;9.200;2022-07-10T17:03:29;24.40;19.10